メインページ
METAR-TAF:

METAR-TAF

空港 :

ウアリ・ブーメディアン空港

アルジェ, アルジェリア

緯度: 36-43N, 経度: 003-15E, 海抜: 25m

現時点の気象観測

当レポートは22分前の22:00(UTC)に作成
無風
気温 6°C
湿度 100%
気圧 1022 hPa
視程: 3000m
高度2000ftの雲はほとんどない

METAR: DAAG 112200Z 00000KT 3000 BR FEW020 06/06 Q1022

時間: 23:22 (22:22 UTC)

予報

当レポートは5時間22分前の17:00(UTC)に作成
予報は11日の 18時(UTC)から 12日の 18時(UTC)まで有効
変向風 2kt
視程: 6000m
高度2600ftの雲はほとんどない
11日の 19時(UTC)から 12日の 06時(UTC)まで一時的に
視程: 3000m
高度1500ftの千切れ雲あり
確率 40% :
11日の 20時(UTC)から 12日の 04時(UTC)まで一時的に
視程: 0800m
確率 30% :
11日の 21時(UTC)から 12日の 03時(UTC)まで一時的に
視程: 0200m
高度1000ftの千切れ雲あり
12日の 09時(UTC)から 12日の 12時(UTC)まで徐々に
西/北西の風 10kt

TAF: DAAG 111700Z 1118/1218 VRB02KT 6000 FEW026 TEMPO 1119/1206 3000 BR BKN015 PROB40 TEMPO 1120/1204 0800 FG PROB30 TEMPO 1121/1203 0200 FG BKN010 BECMG 1209/1212 30010KT

4,000以上の空港の気象観測と天気予報(METAR報とTAF報)

利用可能な観測所は地図上に黄色い丸と赤い丸で示す。

丸の上にカーソルを重ねると観測所名を参照できる。

次にクリックすると気象観測と天気予報を参照できる。

マップの切り替え:黒色「×」印の緑ボタンをクリックして拡大、「-」印の緑ボタンをクリックして縮小、緑色の三角印をクリックして隣りの地図に切り替え


METAR-TAF: